createdAt,value
2018-01-20T00:02:15.773Z,1.07
2018-01-20T00:04:43.378Z,1.22
2018-01-20T00:07:10.933Z,1.26
2018-01-20T00:09:50.219Z,1.21
2018-01-20T00:12:17.808Z,1.33
2018-01-20T00:14:45.440Z,1.39
2018-01-20T00:17:16.016Z,1.46
2018-01-20T00:19:43.574Z,1.13
2018-01-20T00:22:27.976Z,1.35
2018-01-20T00:25:01.119Z,1.13
2018-01-20T00:27:29.126Z,1.03
2018-01-20T00:29:56.660Z,1.02
2018-01-20T00:32:24.254Z,0.94
2018-01-20T00:34:51.787Z,1.03
2018-01-20T00:37:19.333Z,0.99
2018-01-20T00:39:46.923Z,1.13
2018-01-20T00:42:15.460Z,1.21
2018-01-20T00:44:43.017Z,1.18
2018-01-20T00:47:10.580Z,1.14
2018-01-20T00:49:38.101Z,1.60
2018-01-20T00:52:05.657Z,1.51
2018-01-20T00:54:33.176Z,1.37
2018-01-20T00:57:00.724Z,1.85
2018-01-20T00:59:28.282Z,1.56
2018-01-20T01:01:56.027Z,1.57
2018-01-20T01:04:23.593Z,1.56
2018-01-20T01:06:51.153Z,1.26
2018-01-20T01:09:18.745Z,1.39
2018-01-20T01:11:46.277Z,1.41
2018-01-20T01:14:13.834Z,1.77
2018-01-20T01:16:41.572Z,1.61
2018-01-20T01:19:09.163Z,1.47
2018-01-20T01:21:36.681Z,1.32
2018-01-20T01:24:04.212Z,1.44
2018-01-20T01:26:31.793Z,1.50
2018-01-20T01:28:59.314Z,1.69
2018-01-20T01:31:26.861Z,1.72
2018-01-20T01:33:54.481Z,1.52
2018-01-20T01:36:22.045Z,1.91
2018-01-20T01:38:49.614Z,2.10
2018-01-20T01:41:17.205Z,1.98
2018-01-20T01:43:44.792Z,1.36
2018-01-20T01:46:12.412Z,1.23
2018-01-20T01:48:39.974Z,1.41
2018-01-20T01:51:07.545Z,1.31
2018-01-20T01:53:35.190Z,1.63
2018-01-20T01:56:02.745Z,1.45
2018-01-20T01:58:30.272Z,1.65
2018-01-20T02:00:57.827Z,1.39
2018-01-20T02:03:25.347Z,1.09
2018-01-20T02:05:52.942Z,1.34
2018-01-20T02:08:20.506Z,1.71
2018-01-20T02:10:48.095Z,1.75
2018-01-20T02:13:15.672Z,1.66
2018-01-20T02:15:43.268Z,1.63
2018-01-20T02:18:10.829Z,1.25
2018-01-20T02:20:38.426Z,1.48
2018-01-20T02:23:05.991Z,1.30
2018-01-20T02:25:33.646Z,1.43
2018-01-20T02:28:01.179Z,1.70
2018-01-20T02:30:29.033Z,1.69
2018-01-20T02:32:56.589Z,1.47
2018-01-20T02:35:24.119Z,1.50
2018-01-20T02:37:51.738Z,1.07
2018-01-20T02:40:19.290Z,1.47
2018-01-20T02:42:46.858Z,1.50
2018-01-20T02:45:14.445Z,0.96
2018-01-20T02:47:41.985Z,1.12
2018-01-20T02:50:09.503Z,1.11
2018-01-20T02:52:37.082Z,1.24
2018-01-20T02:55:04.843Z,0.96
2018-01-20T02:57:32.405Z,1.26
2018-01-20T03:00:00.023Z,1.17
2018-01-20T03:02:27.731Z,1.02
2018-01-20T03:04:55.296Z,1.34
2018-01-20T03:07:22.990Z,1.35
2018-01-20T03:09:50.542Z,1.22
2018-01-20T03:12:18.674Z,1.13
2018-01-20T03:14:46.204Z,1.38
2018-01-20T03:17:13.758Z,1.21
2018-01-20T03:19:41.395Z,1.17
2018-01-20T03:22:08.959Z,1.28
2018-01-20T03:24:36.520Z,1.35
2018-01-20T03:27:04.319Z,0.98
2018-01-20T03:29:31.910Z,1.35
2018-01-20T03:31:59.477Z,1.68
2018-01-20T03:34:27.078Z,1.35
2018-01-20T03:36:54.600Z,1.51
2018-01-20T03:39:22.497Z,0.95
2018-01-20T03:41:50.054Z,1.13
2018-01-20T03:44:17.841Z,0.78
2018-01-20T03:46:45.510Z,1.33
2018-01-20T03:49:13.032Z,0.97
2018-01-20T03:51:40.867Z,1.18
2018-01-20T03:54:08.392Z,1.19
2018-01-20T03:56:35.949Z,1.24
2018-01-20T03:59:03.594Z,1.74
2018-01-20T04:01:31.154Z,1.21
2018-01-20T04:03:58.943Z,1.19
2018-01-20T04:06:26.522Z,1.10
2018-01-20T04:08:54.098Z,1.23
2018-01-20T04:11:21.714Z,1.62
2018-01-20T04:13:49.266Z,1.54
2018-01-20T04:16:16.817Z,1.49
2018-01-20T04:18:44.375Z,1.92
2018-01-20T04:21:11.910Z,1.51
2018-01-20T04:23:39.493Z,1.63
2018-01-20T04:26:07.008Z,1.45
2018-01-20T04:28:34.564Z,1.49
2018-01-20T04:31:02.435Z,1.21
2018-01-20T04:33:30.001Z,1.34
2018-01-20T04:35:57.570Z,1.42
2018-01-20T04:38:25.151Z,1.25
2018-01-20T04:40:52.714Z,1.64
2018-01-20T04:43:20.311Z,1.74
2018-01-20T04:45:48.130Z,1.40
2018-01-20T04:48:15.690Z,1.27
2018-01-20T04:50:43.277Z,1.32
2018-01-20T04:53:10.905Z,1.75
2018-01-20T04:55:38.483Z,1.52
2018-01-20T04:58:06.039Z,1.48
2018-01-20T05:00:33.935Z,1.77
2018-01-20T05:03:01.504Z,1.49
2018-01-20T05:05:29.153Z,1.78
2018-01-20T05:07:56.769Z,1.60
2018-01-20T05:10:24.362Z,1.42
2018-01-20T05:12:51.932Z,1.48
2018-01-20T05:15:19.520Z,1.46
2018-01-20T05:17:47.044Z,1.44
2018-01-20T05:20:14.634Z,1.28
2018-01-20T05:22:42.148Z,1.36
2018-01-20T05:25:09.736Z,1.48
2018-01-20T05:27:37.264Z,1.38
2018-01-20T05:30:05.068Z,1.50
2018-01-20T05:32:32.636Z,1.41
2018-01-20T05:35:00.202Z,1.40
2018-01-20T05:37:27.794Z,1.22
2018-01-20T05:39:55.353Z,1.22
2018-01-20T05:42:22.937Z,1.29
2018-01-20T05:44:50.659Z,1.20
2018-01-20T05:47:18.656Z,1.42
2018-01-20T05:49:46.223Z,1.45
2018-01-20T05:52:13.757Z,1.47
2018-01-20T05:54:41.311Z,1.36
2018-01-20T05:57:08.914Z,1.25
2018-01-20T05:59:36.471Z,1.15
2018-01-20T06:02:04.026Z,1.26
2018-01-20T06:04:31.610Z,1.26
2018-01-20T06:06:59.123Z,1.37
2018-01-20T06:09:26.795Z,1.25
2018-01-20T06:11:56.985Z,1.17
2018-01-20T06:14:24.583Z,1.13
2018-01-20T06:16:52.146Z,1.39
2018-01-20T06:19:19.715Z,1.37
2018-01-20T06:21:47.283Z,1.39
2018-01-20T06:24:15.103Z,1.31
2018-01-20T06:26:42.694Z,1.28
2018-01-20T06:29:10.277Z,1.33
2018-01-20T06:31:37.898Z,1.19
2018-01-20T06:34:06.152Z,1.50
2018-01-20T06:36:34.106Z,1.38
2018-01-20T06:39:01.771Z,1.38
2018-01-20T06:41:29.333Z,1.46
2018-01-20T06:43:56.990Z,1.49
2018-01-20T06:46:24.950Z,1.39
2018-01-20T06:48:52.523Z,1.19
2018-01-20T06:51:20.043Z,1.45
2018-01-20T06:53:47.719Z,1.48
2018-01-20T06:56:15.253Z,1.41
2018-01-20T06:58:42.825Z,1.28
2018-01-20T07:01:10.390Z,1.49
2018-01-20T07:03:37.978Z,1.52
2018-01-20T07:06:05.538Z,1.60
2018-01-20T07:08:33.088Z,1.37
2018-01-20T07:11:00.633Z,1.22
2018-01-20T07:13:28.213Z,1.27
2018-01-20T07:15:55.877Z,1.42
2018-01-20T07:18:23.657Z,1.39
2018-01-20T07:20:51.382Z,1.66
2018-01-20T07:23:18.992Z,1.49
2018-01-20T07:25:46.511Z,1.40
2018-01-20T07:28:14.208Z,1.39
2018-01-20T07:30:41.765Z,1.70
2018-01-20T07:33:09.328Z,1.67
2018-01-20T07:35:36.894Z,1.81
2018-01-20T07:38:04.454Z,1.50
2018-01-20T07:40:31.999Z,1.68
2018-01-20T07:42:59.795Z,1.67
2018-01-20T07:45:27.384Z,1.48
2018-01-20T07:47:54.909Z,1.56
2018-01-20T07:50:22.466Z,1.41
2018-01-20T07:52:50.048Z,1.45
2018-01-20T07:55:18.092Z,1.70
2018-01-20T07:57:45.746Z,1.69
2018-01-20T08:00:13.325Z,1.61
2018-01-20T08:02:40.906Z,1.55
2018-01-20T08:05:08.565Z,1.65
2018-01-20T08:07:36.296Z,1.75
2018-01-20T08:10:04.016Z,1.89
2018-01-20T08:12:31.602Z,1.80
2018-01-20T08:14:59.119Z,1.82
2018-01-20T08:17:26.720Z,1.95
2018-01-20T08:19:54.679Z,1.48
2018-01-20T08:22:23.247Z,1.85
2018-01-20T08:24:50.818Z,1.87
2018-01-20T08:27:19.147Z,1.97
2018-01-20T08:29:46.670Z,2.07
2018-01-20T08:32:14.433Z,1.72
2018-01-20T08:34:42.005Z,1.85
2018-01-20T08:37:09.567Z,1.92
2018-01-20T08:39:37.154Z,2.02
2018-01-20T08:42:04.706Z,2.12
2018-01-20T08:44:32.314Z,2.02
2018-01-20T08:46:59.900Z,2.03
2018-01-20T08:49:27.974Z,2.02
2018-01-20T08:51:55.569Z,1.76
2018-01-20T08:54:23.196Z,1.83
2018-01-20T08:56:50.776Z,1.70
2018-01-20T08:59:18.305Z,1.83
2018-01-20T09:01:45.898Z,1.72
2018-01-20T09:04:13.662Z,1.87
2018-01-20T09:06:41.284Z,1.90
2018-01-20T09:09:08.912Z,2.00
2018-01-20T09:11:36.693Z,2.40
2018-01-20T09:14:04.217Z,2.30
2018-01-20T09:16:31.865Z,1.97
2018-01-20T09:18:59.890Z,2.11
2018-01-20T09:21:27.413Z,2.33
2018-01-20T09:23:55.237Z,2.35
2018-01-20T09:26:22.799Z,2.40
2018-01-20T09:28:50.349Z,2.36
2018-01-20T09:31:18.002Z,2.58
2018-01-20T09:33:45.598Z,2.63
2018-01-20T09:36:13.145Z,2.60
2018-01-20T09:38:40.980Z,2.51
2018-01-20T09:41:08.506Z,2.68
2018-01-20T09:43:36.075Z,2.65
2018-01-20T09:46:03.719Z,2.71
2018-01-20T09:48:31.330Z,2.46
2018-01-20T09:50:58.887Z,2.54
2018-01-20T09:53:26.698Z,2.75
2018-01-20T09:55:54.481Z,2.85
2018-01-20T09:58:22.061Z,2.72
2018-01-20T10:00:49.678Z,2.81
2018-01-20T10:03:17.603Z,2.95
2018-01-20T10:05:45.286Z,2.72
2018-01-20T10:08:13.078Z,2.77
2018-01-20T10:10:40.602Z,2.77
2018-01-20T10:13:08.397Z,2.75
2018-01-20T10:15:36.282Z,2.99
2018-01-20T10:18:03.853Z,3.01
2018-01-20T10:20:31.415Z,2.82
2018-01-20T10:22:58.987Z,3.03
2018-01-20T10:25:26.992Z,2.71
2018-01-20T10:27:55.487Z,3.11
2018-01-20T10:30:23.421Z,2.76
2018-01-20T10:32:51.017Z,3.33
2018-01-20T10:35:19.581Z,3.10
2018-01-20T10:37:47.267Z,3.10
2018-01-20T10:40:14.866Z,2.84
2018-01-20T10:42:42.492Z,2.68
2018-01-20T10:45:10.003Z,2.68
2018-01-20T10:47:37.581Z,2.97
2018-01-20T10:50:05.930Z,2.89
2018-01-20T10:52:33.574Z,2.85
2018-01-20T10:55:01.188Z,2.99
2018-01-20T10:57:28.690Z,3.00
2018-01-20T10:59:56.604Z,2.87
2018-01-20T11:02:24.502Z,2.88
2018-01-20T11:04:52.085Z,2.85
2018-01-20T11:07:19.590Z,3.01
2018-01-20T11:09:47.100Z,3.10
2018-01-20T11:12:15.310Z,2.98
2018-01-20T11:14:42.859Z,3.06
2018-01-20T11:17:10.874Z,3.31
2018-01-20T11:19:38.837Z,3.23
2018-01-20T11:22:06.398Z,3.28
2018-01-20T11:24:33.954Z,3.58
2018-01-20T11:27:02.036Z,3.56
2018-01-20T11:29:29.629Z,3.25
2018-01-20T11:31:57.247Z,3.20
2018-01-20T11:34:24.806Z,2.99
2018-01-20T11:36:52.449Z,2.97
2018-01-20T11:39:20.049Z,2.91
2018-01-20T11:41:47.621Z,3.14
2018-01-20T11:44:15.229Z,3.24
2018-01-20T11:46:42.755Z,3.22
2018-01-20T11:49:10.656Z,3.33
2018-01-20T11:51:38.257Z,3.43
2018-01-20T11:54:07.020Z,3.54
2018-01-20T11:56:34.637Z,3.45
2018-01-20T11:59:02.223Z,3.51
2018-01-20T12:01:30.086Z,3.59
2018-01-20T12:03:57.633Z,3.61
2018-01-20T12:06:25.283Z,3.43
2018-01-20T12:08:52.800Z,3.43
2018-01-20T12:11:20.903Z,3.65
2018-01-20T12:13:49.166Z,3.42
2018-01-20T12:16:16.758Z,3.36
2018-01-20T12:18:44.333Z,3.43
2018-01-20T12:21:11.950Z,3.42
2018-01-20T12:23:39.999Z,3.25
2018-01-20T12:26:08.095Z,3.20
2018-01-20T12:28:35.713Z,3.36
2018-01-20T12:31:03.248Z,3.36
2018-01-20T12:33:31.016Z,3.26
2018-01-20T12:35:58.603Z,3.29
2018-01-20T12:38:26.124Z,3.42
2018-01-20T12:40:54.059Z,3.46
2018-01-20T12:43:21.628Z,3.52
2018-01-20T12:45:49.209Z,3.29
2018-01-20T12:48:16.834Z,3.55
2018-01-20T12:50:44.418Z,3.48
2018-01-20T12:53:12.452Z,3.38
2018-01-20T12:55:40.154Z,3.38
2018-01-20T12:58:07.720Z,3.31
2018-01-20T13:00:35.601Z,3.39
2018-01-20T13:03:03.139Z,3.67
2018-01-20T13:05:30.816Z,3.33
2018-01-20T13:07:58.702Z,3.34
2018-01-20T13:10:26.392Z,3.26
2018-01-20T13:12:53.952Z,3.33
2018-01-20T13:15:21.550Z,3.52
2018-01-20T13:17:49.189Z,3.24
2018-01-20T13:20:16.772Z,3.28
2018-01-20T13:22:44.331Z,3.29
2018-01-20T13:25:12.226Z,3.41
2018-01-20T13:27:39.748Z,3.56
2018-01-20T13:30:07.409Z,3.34
2018-01-20T13:32:35.036Z,3.44
2018-01-20T13:35:02.617Z,3.49
2018-01-20T13:37:30.252Z,3.21
2018-01-20T13:39:57.983Z,3.30
2018-01-20T13:42:25.570Z,3.41
2018-01-20T13:44:53.148Z,3.45
2018-01-20T13:47:20.809Z,3.44
2018-01-20T13:49:48.394Z,3.53
2018-01-20T13:52:15.969Z,3.38
2018-01-20T13:54:43.572Z,3.54
2018-01-20T13:57:11.218Z,3.46
2018-01-20T13:59:38.862Z,3.27
2018-01-20T14:02:06.384Z,3.40
2018-01-20T14:04:34.249Z,3.43
2018-01-20T14:07:01.798Z,3.58
2018-01-20T14:09:29.321Z,3.64
2018-01-20T14:11:57.239Z,3.65
2018-01-20T14:14:24.770Z,3.58
2018-01-20T14:16:52.338Z,3.37
2018-01-20T14:19:20.260Z,3.35
2018-01-20T14:21:47.872Z,3.45
2018-01-20T14:24:15.400Z,3.73
2018-01-20T14:26:42.981Z,3.58
2018-01-20T14:29:10.496Z,3.70
2018-01-20T14:31:38.105Z,3.71
2018-01-20T14:34:05.653Z,3.52
2018-01-20T14:36:33.164Z,3.66
2018-01-20T14:39:00.881Z,3.42
2018-01-20T14:41:28.425Z,3.39
2018-01-20T14:43:56.075Z,3.38
2018-01-20T14:46:23.834Z,3.41
2018-01-20T14:48:51.428Z,3.36
2018-01-20T14:51:18.992Z,3.44
2018-01-20T14:53:47.072Z,3.42
2018-01-20T14:56:14.630Z,3.41
2018-01-20T14:58:42.217Z,3.51
2018-01-20T15:01:09.825Z,3.44
2018-01-20T15:03:37.518Z,3.42
2018-01-20T15:06:05.059Z,3.30
2018-01-20T15:08:32.584Z,3.30
2018-01-20T15:11:00.431Z,3.28
2018-01-20T15:13:28.036Z,3.26
2018-01-20T15:15:55.629Z,3.19
2018-01-20T15:18:23.217Z,3.44
2018-01-20T15:20:51.322Z,3.20
2018-01-20T15:23:18.897Z,3.17
2018-01-20T15:25:46.408Z,3.19
2018-01-20T15:28:13.916Z,3.23
2018-01-20T15:30:41.614Z,3.25
2018-01-20T15:33:09.221Z,3.31
2018-01-20T15:35:36.805Z,3.32
2018-01-20T15:38:04.515Z,3.33
2018-01-20T15:40:32.221Z,3.34
2018-01-20T15:42:59.764Z,3.27
2018-01-20T15:45:27.298Z,3.25
2018-01-20T15:47:54.816Z,3.18
2018-01-20T15:50:22.513Z,3.23
2018-01-20T15:52:50.229Z,3.20
2018-01-20T15:55:17.834Z,3.12
2018-01-20T15:57:45.413Z,3.20
2018-01-20T16:00:12.970Z,3.25
2018-01-20T16:02:40.638Z,3.29
2018-01-20T16:05:08.383Z,3.33
2018-01-20T16:07:35.978Z,3.31
2018-01-20T16:10:03.708Z,3.25
2018-01-20T16:12:31.323Z,3.16
2018-01-20T16:14:58.852Z,3.17
2018-01-20T16:17:26.469Z,3.20
2018-01-20T16:19:54.038Z,3.22
2018-01-20T16:22:21.671Z,3.23
2018-01-20T16:24:49.539Z,3.16
2018-01-20T16:27:17.130Z,3.20
2018-01-20T16:29:44.748Z,3.11
2018-01-20T16:32:12.393Z,2.99
2018-01-20T16:34:39.951Z,3.08
2018-01-20T16:37:07.468Z,3.01
2018-01-20T16:39:35.345Z,3.03
2018-01-20T16:42:02.880Z,2.94
2018-01-20T16:44:30.447Z,2.89
2018-01-20T16:46:58.234Z,2.99
2018-01-20T16:49:25.967Z,2.83
2018-01-20T16:51:53.584Z,2.98
2018-01-20T16:54:21.382Z,2.94
2018-01-20T16:56:48.953Z,2.97
2018-01-20T16:59:16.824Z,3.06
2018-01-20T17:01:44.359Z,3.01
2018-01-20T17:04:11.911Z,2.97
2018-01-20T17:06:39.442Z,2.98
2018-01-20T17:09:06.961Z,3.39
2018-01-20T17:11:34.542Z,3.09
2018-01-20T17:14:02.055Z,3.26
2018-01-20T17:16:29.837Z,3.25
2018-01-20T17:18:57.914Z,3.11
2018-01-20T17:21:25.453Z,3.13
2018-01-20T17:23:53.036Z,2.91
2018-01-20T17:26:20.574Z,2.83
2018-01-20T17:28:48.256Z,2.96
2018-01-20T17:31:15.832Z,2.83
2018-01-20T17:33:43.740Z,2.80
2018-01-20T17:36:11.638Z,2.77
2018-01-20T17:38:39.155Z,2.78
2018-01-20T17:41:06.714Z,2.74
2018-01-20T17:43:34.606Z,2.76
2018-01-20T17:46:02.149Z,2.69
2018-01-20T17:48:29.683Z,2.70
2018-01-20T17:50:57.688Z,2.70
2018-01-20T17:53:25.271Z,2.62
2018-01-20T17:55:52.857Z,2.74
2018-01-20T17:58:20.453Z,2.69
2018-01-20T18:00:47.996Z,2.63
2018-01-20T18:03:15.532Z,2.92
2018-01-20T18:05:43.080Z,2.73
2018-01-20T18:08:10.907Z,2.68
2018-01-20T18:10:38.596Z,2.62
2018-01-20T18:13:06.151Z,2.59
2018-01-20T18:15:33.745Z,2.59
2018-01-20T18:18:01.302Z,2.61
2018-01-20T18:20:28.893Z,2.64
2018-01-20T18:22:56.453Z,2.62
2018-01-20T18:25:24.070Z,2.60
2018-01-20T18:27:51.672Z,2.54
2018-01-20T18:30:19.224Z,2.57
2018-01-20T18:32:46.863Z,2.51
2018-01-20T18:35:14.413Z,2.51
2018-01-20T18:37:42.054Z,2.53
2018-01-20T18:40:09.609Z,2.55
2018-01-20T18:42:37.214Z,2.60
2018-01-20T18:45:04.795Z,2.62
2018-01-20T18:47:32.351Z,2.65
2018-01-20T18:49:59.919Z,2.60
2018-01-20T18:52:27.810Z,2.62
2018-01-20T18:54:55.471Z,2.62
2018-01-20T18:57:22.997Z,2.62
2018-01-20T18:59:50.573Z,2.92
2018-01-20T19:02:18.134Z,2.78
2018-01-20T19:04:45.693Z,2.75
2018-01-20T19:07:13.306Z,2.90
2018-01-20T19:09:40.865Z,3.00
2018-01-20T19:12:08.392Z,3.12
2018-01-20T19:14:35.935Z,3.11
2018-01-20T19:17:03.528Z,3.07
2018-01-20T19:19:31.204Z,2.80
2018-01-20T19:21:58.716Z,2.90
2018-01-20T19:24:26.292Z,2.95
2018-01-20T19:26:53.822Z,2.94
2018-01-20T19:29:21.387Z,2.88
2018-01-20T19:31:48.981Z,3.01
2018-01-20T19:34:16.537Z,3.11
2018-01-20T19:36:44.139Z,3.11
2018-01-20T19:39:11.808Z,2.99
2018-01-20T19:41:39.334Z,2.89
2018-01-20T19:44:06.904Z,2.86
2018-01-20T19:46:34.451Z,3.28
2018-01-20T19:49:01.973Z,3.30
2018-01-20T19:51:29.798Z,3.15
2018-01-20T19:53:57.334Z,3.12
2018-01-20T19:56:24.891Z,3.01
2018-01-20T19:58:52.488Z,3.35
2018-01-20T20:01:20.047Z,3.05
2018-01-20T20:03:47.588Z,3.19
2018-01-20T20:06:15.198Z,2.90
2018-01-20T20:08:42.852Z,2.93
2018-01-20T20:11:10.376Z,3.00
2018-01-20T20:13:37.923Z,2.96
2018-01-20T20:16:05.535Z,3.27
2018-01-20T20:18:33.085Z,3.28
2018-01-20T20:21:00.882Z,3.39
2018-01-20T20:23:28.446Z,3.32
2018-01-20T20:25:55.982Z,2.95
2018-01-20T20:28:23.599Z,2.87
2018-01-20T20:30:51.275Z,3.16
2018-01-20T20:33:18.863Z,2.89
2018-01-20T20:35:46.462Z,3.26
2018-01-20T20:38:14.009Z,3.30
2018-01-20T20:40:41.617Z,3.27
2018-01-20T20:43:09.229Z,2.85
2018-01-20T20:45:36.835Z,2.72
2018-01-20T20:48:04.353Z,2.64
2018-01-20T20:50:31.891Z,2.75
2018-01-20T20:52:59.460Z,2.69
2018-01-20T20:55:27.054Z,2.55
2018-01-20T20:57:54.659Z,2.49
2018-01-20T21:00:22.274Z,2.47
2018-01-20T21:02:49.887Z,2.43
2018-01-20T21:05:17.436Z,2.43
2018-01-20T21:07:45.013Z,2.41
2018-01-20T21:10:12.597Z,2.41
2018-01-20T21:12:40.223Z,2.43
2018-01-20T21:15:07.893Z,2.40
2018-01-20T21:17:35.462Z,2.40
2018-01-20T21:20:03.027Z,2.42
2018-01-20T21:22:30.628Z,2.50
2018-01-20T21:24:58.218Z,2.44
2018-01-20T21:27:25.742Z,2.48
2018-01-20T21:29:53.338Z,2.52
2018-01-20T21:32:21.115Z,2.54
2018-01-20T21:34:48.806Z,2.61
2018-01-20T21:37:16.344Z,2.53
2018-01-20T21:39:43.916Z,2.56
2018-01-20T21:42:11.471Z,2.51
2018-01-20T21:44:39.050Z,2.48
2018-01-20T21:47:06.637Z,2.44
2018-01-20T21:49:34.229Z,2.46
2018-01-20T21:52:01.834Z,2.22
2018-01-20T21:54:29.450Z,2.16
2018-01-20T21:56:56.980Z,2.28
2018-01-20T21:59:24.542Z,2.29
2018-01-20T22:01:52.121Z,2.30
2018-01-20T22:04:19.661Z,2.35
2018-01-20T22:06:47.593Z,2.33
2018-01-20T22:09:15.192Z,2.24
2018-01-20T22:11:42.733Z,2.17
2018-01-20T22:14:10.286Z,2.09
2018-01-20T22:16:37.849Z,2.08
2018-01-20T22:19:05.442Z,2.06
2018-01-20T22:21:33.005Z,2.05
2018-01-20T22:24:00.632Z,2.06
2018-01-20T22:26:28.171Z,1.98
2018-01-20T22:28:56.067Z,2.00
2018-01-20T22:31:23.642Z,1.94
2018-01-20T22:33:51.210Z,1.99
2018-01-20T22:36:19.148Z,1.96
2018-01-20T22:38:46.708Z,1.98
2018-01-20T22:41:14.243Z,2.13
2018-01-20T22:43:42.682Z,2.10
2018-01-20T22:46:10.211Z,2.09
2018-01-20T22:48:37.770Z,2.15
2018-01-20T22:51:05.316Z,2.16
2018-01-20T22:53:32.945Z,2.23
2018-01-20T22:56:00.502Z,2.21
2018-01-20T22:58:28.376Z,2.20
2018-01-20T23:00:56.000Z,2.21
2018-01-20T23:03:23.567Z,2.22
2018-01-20T23:05:51.092Z,2.22
2018-01-20T23:08:18.712Z,2.27
2018-01-20T23:10:46.309Z,2.25
2018-01-20T23:13:13.890Z,2.24
2018-01-20T23:15:41.411Z,2.28
2018-01-20T23:18:08.964Z,2.24
2018-01-20T23:20:36.588Z,2.26
2018-01-20T23:23:04.118Z,2.27
2018-01-20T23:25:32.057Z,2.22
2018-01-20T23:27:59.613Z,2.22
2018-01-20T23:30:27.186Z,2.16
2018-01-20T23:32:54.768Z,2.18
2018-01-20T23:35:22.300Z,2.19
2018-01-20T23:37:49.852Z,2.22
2018-01-20T23:40:17.400Z,2.22
2018-01-20T23:42:44.982Z,2.22
2018-01-20T23:45:12.541Z,2.36
2018-01-20T23:47:40.403Z,2.35
2018-01-20T23:50:07.956Z,2.25
2018-01-20T23:52:35.737Z,2.20
2018-01-20T23:55:03.315Z,2.26
2018-01-20T23:57:30.940Z,2.27
2018-01-20T23:59:58.525Z,2.34
